createdAt,value
2019-04-01T00:01:11.905Z,5.36
2019-04-01T00:06:18.119Z,5.57
2019-04-01T00:11:23.759Z,5.57
2019-04-01T00:16:29.611Z,5.42
2019-04-01T00:21:35.578Z,5.64
2019-04-01T00:26:41.405Z,5.53
2019-04-01T00:31:47.414Z,5.40
2019-04-01T00:36:53.786Z,5.39
2019-04-01T00:42:18.283Z,5.43
2019-04-01T00:47:24.926Z,5.78
2019-04-01T00:52:30.613Z,5.79
2019-04-01T00:57:36.544Z,5.31
2019-04-01T01:02:42.608Z,5.54
2019-04-01T01:07:48.194Z,5.47
2019-04-01T01:12:54.352Z,5.78
2019-04-01T01:18:00.516Z,5.38
2019-04-01T01:23:07.719Z,5.51
2019-04-01T01:28:14.014Z,5.43
2019-04-01T01:33:20.664Z,5.37
2019-04-01T01:38:26.531Z,5.11
2019-04-01T01:43:32.418Z,4.86
2019-04-01T01:48:38.300Z,4.86
2019-04-01T01:53:44.386Z,4.83
2019-04-01T01:58:50.086Z,5.04
2019-04-01T02:03:55.854Z,5.10
2019-04-01T02:09:02.698Z,4.44
2019-04-01T02:14:09.603Z,4.44
2019-04-01T02:19:15.476Z,4.76
2019-04-01T02:24:21.156Z,4.65
2019-04-01T02:29:27.198Z,4.61
2019-04-01T02:34:32.929Z,4.12
2019-04-01T02:39:38.578Z,4.41
2019-04-01T02:44:44.422Z,4.57
2019-04-01T02:49:50.470Z,4.57
2019-04-01T02:54:56.555Z,4.35
2019-04-01T03:00:02.261Z,4.31
2019-04-01T03:05:10.655Z,4.20
2019-04-01T03:10:17.463Z,3.93
2019-04-01T03:15:23.398Z,3.77
2019-04-01T03:20:29.725Z,3.77
2019-04-01T03:25:35.496Z,3.59
2019-04-01T03:30:41.181Z,3.57
2019-04-01T03:35:47.080Z,3.53
2019-04-01T03:40:53.161Z,3.45
2019-04-01T03:45:59.042Z,3.10
2019-04-01T03:51:11.605Z,3.10
2019-04-01T03:56:17.201Z,3.13
2019-04-01T04:01:22.828Z,3.00
2019-04-01T04:06:28.816Z,3.00
2019-04-01T04:11:34.719Z,2.75
2019-04-01T04:16:40.804Z,2.76
2019-04-01T04:21:46.602Z,2.81
2019-04-01T04:26:52.233Z,2.68
2019-04-01T04:31:58.281Z,2.84
2019-04-01T04:37:07.448Z,2.75
2019-04-01T04:42:13.131Z,2.60
2019-04-01T04:47:19.308Z,2.65
2019-04-01T04:52:24.926Z,2.74
2019-04-01T04:57:30.524Z,2.77
2019-04-01T05:02:36.315Z,2.59
2019-04-01T05:07:43.496Z,2.70
2019-04-01T05:12:49.546Z,2.77
2019-04-01T05:17:55.140Z,2.70
2019-04-01T05:23:01.481Z,2.94
2019-04-01T05:28:09.117Z,3.63
2019-04-01T05:33:18.050Z,4.04
2019-04-01T05:38:23.913Z,4.94
2019-04-01T05:43:31.178Z,5.39
2019-04-01T05:48:36.964Z,5.56
2019-04-01T05:53:43.008Z,5.65
2019-04-01T05:58:49.145Z,6.36
2019-04-01T06:03:55.117Z,5.47
2019-04-01T06:09:01.415Z,6.28
2019-04-01T06:14:09.806Z,6.71
2019-04-01T06:19:15.553Z,6.97
2019-04-01T06:24:24.585Z,7.14
2019-04-01T06:29:30.627Z,6.78
2019-04-01T06:34:36.797Z,6.85
2019-04-01T06:39:42.452Z,6.56
2019-04-01T06:44:48.117Z,7.02
2019-04-01T06:49:54.517Z,7.87
2019-04-01T06:55:02.378Z,7.95
2019-04-01T07:00:09.940Z,8.23
2019-04-01T07:05:15.570Z,8.57
2019-04-01T07:10:24.994Z,8.48
2019-04-01T07:15:30.912Z,8.29
2019-04-01T07:20:37.288Z,9.21
2019-04-01T07:25:43.360Z,9.39
2019-04-01T07:30:49.639Z,8.77
2019-04-01T07:35:55.828Z,8.32
2019-04-01T07:41:07.970Z,8.27
2019-04-01T07:46:09.602Z,8.73
2019-04-01T07:51:16.193Z,7.25
2019-04-01T07:56:22.253Z,7.58
2019-04-01T08:01:28.457Z,7.85
2019-04-01T08:06:34.531Z,8.12
2019-04-01T08:11:40.153Z,8.98
2019-04-01T08:16:46.465Z,9.34
2019-04-01T08:21:52.570Z,8.92
2019-04-01T08:26:58.904Z,9.24
2019-04-01T08:32:05.102Z,9.23
2019-04-01T08:37:11.892Z,8.96
2019-04-01T08:42:18.276Z,9.88
2019-04-01T08:47:24.165Z,10.44
2019-04-01T08:52:29.751Z,10.82
2019-04-01T08:57:35.486Z,11.21
2019-04-01T09:02:41.125Z,11.15
2019-04-01T09:07:47.088Z,10.72
2019-04-01T09:12:53.781Z,10.54
2019-04-01T09:17:59.665Z,10.54
2019-04-01T09:23:05.951Z,9.36
2019-04-01T09:28:12.323Z,9.57
2019-04-01T09:33:18.005Z,10.01
2019-04-01T09:38:23.683Z,10.29
2019-04-01T09:43:29.454Z,10.37
2019-04-01T09:48:35.040Z,9.99
2019-04-01T09:53:40.698Z,11.33
2019-04-01T09:58:46.713Z,12.16
2019-04-01T10:03:52.787Z,12.64
2019-04-01T10:08:59.179Z,11.75
2019-04-01T10:14:09.554Z,13.10
2019-04-01T10:19:15.601Z,12.23
2019-04-01T10:24:21.802Z,11.75
2019-04-01T10:29:27.855Z,11.61
2019-04-01T10:34:34.289Z,12.27
2019-04-01T10:39:41.656Z,11.71
2019-04-01T10:44:47.520Z,12.18
2019-04-01T10:49:54.551Z,12.76
2019-04-01T10:55:00.389Z,12.08
2019-04-01T11:00:10.436Z,12.06
2019-04-01T11:05:17.220Z,11.20
2019-04-01T11:10:22.906Z,11.59
2019-04-01T11:15:28.591Z,11.43
2019-04-01T11:20:34.240Z,11.74
2019-04-01T11:25:40.471Z,12.71
2019-04-01T11:30:46.195Z,12.44
2019-04-01T11:35:51.865Z,12.39
2019-04-01T11:40:58.864Z,12.98
2019-04-01T11:46:06.128Z,12.75
2019-04-01T11:51:12.109Z,12.97
2019-04-01T11:56:17.769Z,12.42
2019-04-01T12:01:23.694Z,12.52
2019-04-01T12:06:30.451Z,12.20
2019-04-01T12:11:36.442Z,11.85
2019-04-01T12:16:43.527Z,12.50
2019-04-01T12:21:49.270Z,12.28
2019-04-01T12:26:55.455Z,12.80
2019-04-01T12:32:01.105Z,12.11
2019-04-01T12:37:06.920Z,12.26
2019-04-01T12:42:13.283Z,12.47
2019-04-01T12:47:18.942Z,12.12
2019-04-01T12:52:25.325Z,12.18
2019-04-01T12:57:30.936Z,12.54
2019-04-01T13:02:36.932Z,12.48
2019-04-01T13:07:43.100Z,12.19
2019-04-01T13:12:49.741Z,12.25
2019-04-01T13:17:55.435Z,12.59
2019-04-01T13:23:04.407Z,12.73
2019-04-01T13:28:10.113Z,12.60
2019-04-01T13:33:17.018Z,12.10
2019-04-01T13:38:23.105Z,12.69
2019-04-01T13:43:29.993Z,12.62
2019-04-01T13:48:35.924Z,12.34
2019-04-01T13:53:41.539Z,12.56
2019-04-01T13:58:47.209Z,12.67
2019-04-01T14:03:53.181Z,12.64
2019-04-01T14:09:00.486Z,12.40
2019-04-01T14:14:07.765Z,12.44
2019-04-01T14:19:13.698Z,13.04
2019-04-01T14:24:19.310Z,13.05
2019-04-01T14:29:26.422Z,12.75
2019-04-01T14:34:35.667Z,12.59
2019-04-01T14:39:41.879Z,13.19
2019-04-01T14:44:58.607Z,12.49
2019-04-01T14:50:07.623Z,12.02
2019-04-01T14:55:13.335Z,12.16
2019-04-01T15:00:20.725Z,12.36
2019-04-01T15:05:26.879Z,12.51
2019-04-01T15:10:32.901Z,12.25
2019-04-01T15:15:38.514Z,12.39
2019-04-01T15:20:44.548Z,12.38
2019-04-01T15:25:50.205Z,12.38
2019-04-01T15:30:56.575Z,12.35
2019-04-01T15:36:04.736Z,11.92
2019-04-01T15:41:11.333Z,11.84
2019-04-01T15:46:18.243Z,12.20
2019-04-01T15:51:23.969Z,11.99
2019-04-01T15:56:29.798Z,11.90
2019-04-01T16:01:35.495Z,11.69
2019-04-01T16:06:41.361Z,11.75
2019-04-01T16:11:47.557Z,11.84
2019-04-01T16:16:54.918Z,11.87
2019-04-01T16:22:01.192Z,11.71
2019-04-01T16:27:08.004Z,11.21
2019-04-01T16:32:13.878Z,11.23
2019-04-01T16:37:20.123Z,11.22
2019-04-01T16:42:25.989Z,11.40
2019-04-01T16:47:34.267Z,11.18
2019-04-01T16:52:50.565Z,10.80
2019-04-01T16:57:56.851Z,10.84
2019-04-01T17:03:03.312Z,10.58
2019-04-01T17:08:10.345Z,10.72
2019-04-01T17:13:17.322Z,10.36
2019-04-01T17:18:23.111Z,10.40
2019-04-01T17:23:30.599Z,10.24
2019-04-01T17:28:39.877Z,10.11
2019-04-01T17:33:45.660Z,9.98
2019-04-01T17:38:52.374Z,10.18
2019-04-01T17:43:58.778Z,9.95
2019-04-01T17:49:06.788Z,9.67
2019-04-01T17:54:14.572Z,9.88
2019-04-01T17:59:20.417Z,9.59
2019-04-01T18:04:26.095Z,9.29
2019-04-01T18:09:31.894Z,9.21
2019-04-01T18:14:38.307Z,9.29
2019-04-01T18:19:44.993Z,9.22
2019-04-01T18:24:51.183Z,8.91
2019-04-01T18:29:58.788Z,9.07
2019-04-01T18:35:09.908Z,9.03
2019-04-01T18:40:31.491Z,8.94
2019-04-01T18:45:28.369Z,8.94
2019-04-01T18:50:36.394Z,8.87
2019-04-01T18:55:45.063Z,8.89
2019-04-01T19:00:51.316Z,8.85
2019-04-01T19:05:58.547Z,8.68
2019-04-01T19:11:06.132Z,8.48
2019-04-01T19:16:16.795Z,8.37
2019-04-01T19:21:23.903Z,8.42
2019-04-01T19:26:31.623Z,8.25
2019-04-01T19:31:51.139Z,8.15
2019-04-01T19:36:58.897Z,8.15
2019-04-01T19:42:05.862Z,7.85
2019-04-01T19:47:11.822Z,7.49
2019-04-01T19:52:20.458Z,7.35
2019-04-01T19:57:28.083Z,7.44
2019-04-01T20:02:37.456Z,7.41
2019-04-01T20:07:44.139Z,7.33
2019-04-01T20:12:53.315Z,7.38
2019-04-01T20:17:59.892Z,7.26
2019-04-01T20:23:09.178Z,6.90
2019-04-01T20:28:15.458Z,6.80
2019-04-01T20:33:22.070Z,6.76
2019-04-01T20:38:28.777Z,6.50
2019-04-01T20:43:34.832Z,6.51
2019-04-01T20:48:40.633Z,6.22
2019-04-01T20:53:47.725Z,6.35
2019-04-01T20:58:55.893Z,5.97
2019-04-01T21:04:01.214Z,6.48
2019-04-01T21:09:09.857Z,6.16
2019-04-01T21:14:17.322Z,6.13
2019-04-01T21:19:22.955Z,6.07
2019-04-01T21:24:29.164Z,5.68
2019-04-01T21:34:40.254Z,5.64
2019-04-01T21:39:46.422Z,5.45
2019-04-01T21:44:52.023Z,5.37
2019-04-01T21:49:57.754Z,5.61
2019-04-01T21:55:03.460Z,5.29
2019-04-01T22:00:11.719Z,5.40
2019-04-01T22:05:19.515Z,5.26
2019-04-01T22:10:25.355Z,5.40
2019-04-01T22:15:30.967Z,5.43
2019-04-01T22:20:36.905Z,5.37
2019-04-01T22:25:42.673Z,5.13
2019-04-01T22:30:48.280Z,5.38
2019-04-01T22:35:54.285Z,5.42
2019-04-01T22:41:00.274Z,5.19
2019-04-01T22:46:09.135Z,5.09
2019-04-01T22:51:14.796Z,5.33
2019-04-01T22:56:20.655Z,5.19
2019-04-01T23:01:26.609Z,4.83
2019-04-01T23:06:32.218Z,5.03
2019-04-01T23:11:38.485Z,4.92
2019-04-01T23:16:44.248Z,4.87
2019-04-01T23:21:50.180Z,4.61
2019-04-01T23:26:56.355Z,4.83
2019-04-01T23:32:02.087Z,4.66
2019-04-01T23:37:09.271Z,4.32
2019-04-01T23:42:15.613Z,4.34
2019-04-01T23:47:21.238Z,4.40
2019-04-01T23:52:27.368Z,4.18
2019-04-01T23:57:34.535Z,4.28
